Terminal Aerodrome Forecast
Issued by NWS

Current Version | Previous Version | Text Only | Print | Product List | Glossary On
Versions: 1 2 3 4 5 6 7 8 9 10 11 12 13 14 15
463
FTUS45 KRIW 122331
TAFCOD
TAF
KCOD 122331Z 1300/1324 05006KT P6SM SCT110 BKN250
     FM130300 25008KT P6SM BKN250
     FM131400 25014G26KT P6SM SCT070 BKN150
     FM132000 28013G21KT P6SM SCT080
      AMD LTD TO CLD VIS AND WIND=

USA.gov is the U.S. government's official web portal to all federal, state and local government web resources and services.